sensor_id;sensor_type;location;lat;lon;timestamp;P1;durP1;ratioP1;P2;durP2;ratioP2
4939;SDS011;2485;49.326;7.214;2022-09-13T00:00:47;13.97;;;5.80;;
4939;SDS011;2485;49.326;7.214;2022-09-13T00:03:15;14.00;;;6.87;;
4939;SDS011;2485;49.326;7.214;2022-09-13T00:05:42;8.87;;;5.60;;
4939;SDS011;2485;49.326;7.214;2022-09-13T00:08:09;15.07;;;6.60;;
4939;SDS011;2485;49.326;7.214;2022-09-13T00:10:36;12.00;;;6.80;;
4939;SDS011;2485;49.326;7.214;2022-09-13T00:13:04;10.47;;;7.00;;
4939;SDS011;2485;49.326;7.214;2022-09-13T00:15:32;10.10;;;6.73;;
4939;SDS011;2485;49.326;7.214;2022-09-13T00:17:59;12.47;;;6.87;;
4939;SDS011;2485;49.326;7.214;2022-09-13T00:20:27;15.00;;;7.10;;
4939;SDS011;2485;49.326;7.214;2022-09-13T00:22:54;10.77;;;6.80;;
4939;SDS011;2485;49.326;7.214;2022-09-13T00:25:20;15.37;;;6.53;;
4939;SDS011;2485;49.326;7.214;2022-09-13T00:27:47;13.70;;;6.07;;
4939;SDS011;2485;49.326;7.214;2022-09-13T00:30:16;16.10;;;7.37;;
4939;SDS011;2485;49.326;7.214;2022-09-13T00:32:43;18.73;;;5.97;;
4939;SDS011;2485;49.326;7.214;2022-09-13T00:35:10;10.23;;;7.13;;
4939;SDS011;2485;49.326;7.214;2022-09-13T00:37:38;11.03;;;6.70;;
4939;SDS011;2485;49.326;7.214;2022-09-13T00:40:05;12.90;;;7.07;;
4939;SDS011;2485;49.326;7.214;2022-09-13T00:42:32;19.80;;;7.30;;
4939;SDS011;2485;49.326;7.214;2022-09-13T00:45:00;12.20;;;6.10;;
4939;SDS011;2485;49.326;7.214;2022-09-13T00:47:31;13.30;;;6.23;;
4939;SDS011;2485;49.326;7.214;2022-09-13T00:49:58;12.60;;;6.37;;
4939;SDS011;2485;49.326;7.214;2022-09-13T00:52:27;10.10;;;6.17;;
4939;SDS011;2485;49.326;7.214;2022-09-13T00:54:57;8.83;;;5.93;;
4939;SDS011;2485;49.326;7.214;2022-09-13T00:57:25;10.00;;;5.87;;
4939;SDS011;2485;49.326;7.214;2022-09-13T00:59:55;14.50;;;5.70;;
4939;SDS011;2485;49.326;7.214;2022-09-13T01:02:23;11.43;;;5.90;;
4939;SDS011;2485;49.326;7.214;2022-09-13T01:04:50;9.70;;;5.67;;
4939;SDS011;2485;49.326;7.214;2022-09-13T01:07:17;10.70;;;5.90;;
4939;SDS011;2485;49.326;7.214;2022-09-13T01:09:44;8.90;;;5.47;;
4939;SDS011;2485;49.326;7.214;2022-09-13T01:12:14;10.67;;;5.23;;
4939;SDS011;2485;49.326;7.214;2022-09-13T01:14:44;10.77;;;6.10;;
4939;SDS011;2485;49.326;7.214;2022-09-13T01:17:12;8.60;;;5.30;;
4939;SDS011;2485;49.326;7.214;2022-09-13T01:19:38;9.40;;;5.73;;
4939;SDS011;2485;49.326;7.214;2022-09-13T01:27:43;10.20;;;6.47;;
4939;SDS011;2485;49.326;7.214;2022-09-13T01:30:18;10.37;;;6.43;;
4939;SDS011;2485;49.326;7.214;2022-09-13T01:32:50;8.83;;;5.67;;
4939;SDS011;2485;49.326;7.214;2022-09-13T01:35:21;11.57;;;5.40;;
4939;SDS011;2485;49.326;7.214;2022-09-13T01:37:50;10.03;;;5.33;;
4939;SDS011;2485;49.326;7.214;2022-09-13T01:40:22;8.73;;;5.63;;
4939;SDS011;2485;49.326;7.214;2022-09-13T01:42:59;9.10;;;5.90;;
4939;SDS011;2485;49.326;7.214;2022-09-13T01:45:35;8.30;;;5.50;;
4939;SDS011;2485;49.326;7.214;2022-09-13T01:48:05;10.57;;;5.63;;
4939;SDS011;2485;49.326;7.214;2022-09-13T01:50:36;8.10;;;5.57;;
4939;SDS011;2485;49.326;7.214;2022-09-13T01:53:06;10.70;;;6.07;;
4939;SDS011;2485;49.326;7.214;2022-09-13T01:55:35;10.33;;;5.80;;
4939;SDS011;2485;49.326;7.214;2022-09-13T01:58:08;12.37;;;6.37;;
4939;SDS011;2485;49.326;7.214;2022-09-13T02:00:38;10.93;;;5.80;;
4939;SDS011;2485;49.326;7.214;2022-09-13T02:03:08;13.30;;;5.73;;
4939;SDS011;2485;49.326;7.214;2022-09-13T02:05:37;9.97;;;5.83;;
4939;SDS011;2485;49.326;7.214;2022-09-13T02:08:08;10.70;;;6.40;;
4939;SDS011;2485;49.326;7.214;2022-09-13T02:10:36;12.30;;;7.67;;
4939;SDS011;2485;49.326;7.214;2022-09-13T02:13:05;12.23;;;6.87;;
4939;SDS011;2485;49.326;7.214;2022-09-13T02:15:35;19.70;;;6.90;;
4939;SDS011;2485;49.326;7.214;2022-09-13T02:18:06;13.37;;;6.00;;
4939;SDS011;2485;49.326;7.214;2022-09-13T02:20:35;8.37;;;4.90;;
4939;SDS011;2485;49.326;7.214;2022-09-13T02:23:04;9.40;;;6.00;;
4939;SDS011;2485;49.326;7.214;2022-09-13T02:25:33;13.10;;;5.77;;
4939;SDS011;2485;49.326;7.214;2022-09-13T02:28:02;7.50;;;5.40;;
4939;SDS011;2485;49.326;7.214;2022-09-13T02:30:31;10.80;;;6.17;;
4939;SDS011;2485;49.326;7.214;2022-09-13T02:33:02;17.00;;;6.43;;
4939;SDS011;2485;49.326;7.214;2022-09-13T02:35:32;9.20;;;5.37;;
4939;SDS011;2485;49.326;7.214;2022-09-13T02:38:01;11.33;;;6.23;;
4939;SDS011;2485;49.326;7.214;2022-09-13T02:40:31;10.53;;;6.20;;
4939;SDS011;2485;49.326;7.214;2022-09-13T02:43:01;8.47;;;5.57;;
4939;SDS011;2485;49.326;7.214;2022-09-13T02:45:30;6.90;;;5.00;;
4939;SDS011;2485;49.326;7.214;2022-09-13T02:48:02;8.00;;;5.27;;
4939;SDS011;2485;49.326;7.214;2022-09-13T02:50:34;12.07;;;5.90;;
4939;SDS011;2485;49.326;7.214;2022-09-13T02:53:04;8.63;;;5.20;;
4939;SDS011;2485;49.326;7.214;2022-09-13T02:55:38;9.40;;;5.40;;
4939;SDS011;2485;49.326;7.214;2022-09-13T02:58:09;11.60;;;6.33;;
4939;SDS011;2485;49.326;7.214;2022-09-13T03:00:36;9.80;;;5.70;;
4939;SDS011;2485;49.326;7.214;2022-09-13T03:03:03;9.10;;;6.27;;
4939;SDS011;2485;49.326;7.214;2022-09-13T03:05:33;12.37;;;5.17;;
4939;SDS011;2485;49.326;7.214;2022-09-13T03:08:00;10.90;;;5.67;;
4939;SDS011;2485;49.326;7.214;2022-09-13T03:10:28;11.20;;;5.87;;
4939;SDS011;2485;49.326;7.214;2022-09-13T03:13:10;9.40;;;5.63;;
4939;SDS011;2485;49.326;7.214;2022-09-13T03:15:44;11.30;;;5.60;;
4939;SDS011;2485;49.326;7.214;2022-09-13T03:18:16;7.80;;;5.63;;
4939;SDS011;2485;49.326;7.214;2022-09-13T03:20:52;8.20;;;5.70;;
4939;SDS011;2485;49.326;7.214;2022-09-13T03:23:34;11.53;;;5.70;;
4939;SDS011;2485;49.326;7.214;2022-09-13T03:26:14;9.80;;;6.30;;
4939;SDS011;2485;49.326;7.214;2022-09-13T03:28:45;10.60;;;5.90;;
4939;SDS011;2485;49.326;7.214;2022-09-13T03:31:17;10.00;;;6.17;;
4939;SDS011;2485;49.326;7.214;2022-09-13T03:33:50;21.23;;;6.47;;
4939;SDS011;2485;49.326;7.214;2022-09-13T03:36:20;17.27;;;6.70;;
4939;SDS011;2485;49.326;7.214;2022-09-13T03:38:52;13.23;;;6.10;;
4939;SDS011;2485;49.326;7.214;2022-09-13T03:41:21;11.17;;;7.10;;
4939;SDS011;2485;49.326;7.214;2022-09-13T03:43:49;10.30;;;6.10;;
4939;SDS011;2485;49.326;7.214;2022-09-13T03:46:17;15.03;;;6.80;;
4939;SDS011;2485;49.326;7.214;2022-09-13T03:48:45;11.63;;;6.37;;
4939;SDS011;2485;49.326;7.214;2022-09-13T03:51:12;13.13;;;6.80;;
4939;SDS011;2485;49.326;7.214;2022-09-13T03:53:45;12.90;;;6.70;;
4939;SDS011;2485;49.326;7.214;2022-09-13T03:56:13;10.40;;;6.10;;
4939;SDS011;2485;49.326;7.214;2022-09-13T03:58:40;9.03;;;6.60;;
4939;SDS011;2485;49.326;7.214;2022-09-13T04:01:07;8.77;;;6.40;;
4939;SDS011;2485;49.326;7.214;2022-09-13T04:03:34;10.10;;;8.00;;
4939;SDS011;2485;49.326;7.214;2022-09-13T04:06:01;13.90;;;7.93;;
4939;SDS011;2485;49.326;7.214;2022-09-13T04:08:28;11.67;;;6.60;;
4939;SDS011;2485;49.326;7.214;2022-09-13T04:10:56;11.73;;;6.77;;
4939;SDS011;2485;49.326;7.214;2022-09-13T04:13:25;10.50;;;6.70;;
4939;SDS011;2485;49.326;7.214;2022-09-13T04:15:52;12.33;;;6.53;;
4939;SDS011;2485;49.326;7.214;2022-09-13T04:18:18;10.40;;;5.97;;
4939;SDS011;2485;49.326;7.214;2022-09-13T04:20:53;14.00;;;6.47;;
4939;SDS011;2485;49.326;7.214;2022-09-13T04:23:20;7.60;;;5.60;;
4939;SDS011;2485;49.326;7.214;2022-09-13T04:25:47;9.53;;;6.17;;
4939;SDS011;2485;49.326;7.214;2022-09-13T04:28:17;15.17;;;6.50;;
4939;SDS011;2485;49.326;7.214;2022-09-13T04:30:44;9.60;;;6.40;;
4939;SDS011;2485;49.326;7.214;2022-09-13T04:33:13;11.23;;;6.30;;
4939;SDS011;2485;49.326;7.214;2022-09-13T04:35:40;14.87;;;7.43;;
4939;SDS011;2485;49.326;7.214;2022-09-13T04:38:06;12.50;;;6.37;;
4939;SDS011;2485;49.326;7.214;2022-09-13T04:40:33;12.20;;;7.40;;
4939;SDS011;2485;49.326;7.214;2022-09-13T04:43:01;10.60;;;7.03;;
4939;SDS011;2485;49.326;7.214;2022-09-13T04:45:29;12.20;;;6.50;;
4939;SDS011;2485;49.326;7.214;2022-09-13T04:47:56;10.67;;;6.53;;
4939;SDS011;2485;49.326;7.214;2022-09-13T04:50:24;11.70;;;6.70;;
4939;SDS011;2485;49.326;7.214;2022-09-13T04:52:53;10.00;;;7.00;;
4939;SDS011;2485;49.326;7.214;2022-09-13T04:55:20;13.13;;;6.00;;
4939;SDS011;2485;49.326;7.214;2022-09-13T04:57:51;10.23;;;5.90;;
4939;SDS011;2485;49.326;7.214;2022-09-13T05:00:18;8.20;;;5.87;;
4939;SDS011;2485;49.326;7.214;2022-09-13T05:02:46;8.00;;;5.50;;
4939;SDS011;2485;49.326;7.214;2022-09-13T05:05:13;6.93;;;5.17;;
4939;SDS011;2485;49.326;7.214;2022-09-13T05:07:40;9.90;;;6.33;;
4939;SDS011;2485;49.326;7.214;2022-09-13T05:10:07;9.33;;;5.93;;
4939;SDS011;2485;49.326;7.214;2022-09-13T05:12:34;12.90;;;5.60;;
4939;SDS011;2485;49.326;7.214;2022-09-13T05:15:00;12.60;;;6.77;;
4939;SDS011;2485;49.326;7.214;2022-09-13T05:17:28;10.67;;;6.00;;
4939;SDS011;2485;49.326;7.214;2022-09-13T05:19:56;16.53;;;6.53;;
4939;SDS011;2485;49.326;7.214;2022-09-13T05:22:23;18.80;;;6.90;;
4939;SDS011;2485;49.326;7.214;2022-09-13T05:24:50;13.13;;;6.43;;
4939;SDS011;2485;49.326;7.214;2022-09-13T05:27:16;11.80;;;7.97;;
4939;SDS011;2485;49.326;7.214;2022-09-13T05:29:43;12.63;;;6.83;;
4939;SDS011;2485;49.326;7.214;2022-09-13T05:32:10;11.83;;;7.80;;
4939;SDS011;2485;49.326;7.214;2022-09-13T05:34:37;11.70;;;8.17;;
4939;SDS011;2485;49.326;7.214;2022-09-13T05:37:05;11.73;;;6.37;;
4939;SDS011;2485;49.326;7.214;2022-09-13T05:39:32;11.80;;;7.10;;
4939;SDS011;2485;49.326;7.214;2022-09-13T05:42:00;15.50;;;7.40;;
4939;SDS011;2485;49.326;7.214;2022-09-13T05:44:27;10.80;;;7.47;;
4939;SDS011;2485;49.326;7.214;2022-09-13T05:46:53;12.30;;;7.57;;
4939;SDS011;2485;49.326;7.214;2022-09-13T05:49:20;20.53;;;8.77;;
4939;SDS011;2485;49.326;7.214;2022-09-13T05:51:48;12.43;;;7.90;;
4939;SDS011;2485;49.326;7.214;2022-09-13T05:54:16;12.13;;;6.53;;
4939;SDS011;2485;49.326;7.214;2022-09-13T05:56:43;11.80;;;6.87;;
4939;SDS011;2485;49.326;7.214;2022-09-13T05:59:11;10.63;;;6.57;;
4939;SDS011;2485;49.326;7.214;2022-09-13T06:01:54;15.80;;;6.40;;
4939;SDS011;2485;49.326;7.214;2022-09-13T06:04:21;11.43;;;6.60;;
4939;SDS011;2485;49.326;7.214;2022-09-13T06:06:48;13.33;;;6.37;;
4939;SDS011;2485;49.326;7.214;2022-09-13T06:09:16;13.20;;;6.37;;
4939;SDS011;2485;49.326;7.214;2022-09-13T06:11:42;10.63;;;6.60;;
4939;SDS011;2485;49.326;7.214;2022-09-13T06:14:09;11.10;;;6.53;;
4939;SDS011;2485;49.326;7.214;2022-09-13T06:16:36;10.93;;;6.23;;
4939;SDS011;2485;49.326;7.214;2022-09-13T06:19:02;13.40;;;6.27;;
4939;SDS011;2485;49.326;7.214;2022-09-13T06:21:29;9.40;;;6.97;;
4939;SDS011;2485;49.326;7.214;2022-09-13T06:23:56;9.47;;;6.57;;
4939;SDS011;2485;49.326;7.214;2022-09-13T06:26:25;9.03;;;6.20;;
4939;SDS011;2485;49.326;7.214;2022-09-13T06:28:53;11.30;;;6.60;;
4939;SDS011;2485;49.326;7.214;2022-09-13T06:31:21;10.93;;;6.50;;
4939;SDS011;2485;49.326;7.214;2022-09-13T06:33:48;12.00;;;6.50;;
4939;SDS011;2485;49.326;7.214;2022-09-13T06:36:21;13.33;;;7.30;;
4939;SDS011;2485;49.326;7.214;2022-09-13T06:38:48;9.80;;;6.57;;
4939;SDS011;2485;49.326;7.214;2022-09-13T06:41:15;14.07;;;7.50;;
4939;SDS011;2485;49.326;7.214;2022-09-13T06:43:44;15.07;;;7.70;;
4939;SDS011;2485;49.326;7.214;2022-09-13T06:46:13;12.87;;;7.70;;
4939;SDS011;2485;49.326;7.214;2022-09-13T06:48:40;11.07;;;7.00;;
4939;SDS011;2485;49.326;7.214;2022-09-13T06:51:07;9.93;;;6.97;;
4939;SDS011;2485;49.326;7.214;2022-09-13T06:53:35;10.77;;;7.50;;
4939;SDS011;2485;49.326;7.214;2022-09-13T06:56:02;13.90;;;7.50;;
4939;SDS011;2485;49.326;7.214;2022-09-13T06:58:30;13.27;;;6.27;;
4939;SDS011;2485;49.326;7.214;2022-09-13T07:01:06;10.80;;;7.00;;
4939;SDS011;2485;49.326;7.214;2022-09-13T07:03:34;12.30;;;7.30;;
4939;SDS011;2485;49.326;7.214;2022-09-13T07:06:05;8.53;;;5.83;;
4939;SDS011;2485;49.326;7.214;2022-09-13T07:08:31;10.50;;;5.80;;
4939;SDS011;2485;49.326;7.214;2022-09-13T07:10:59;12.40;;;6.00;;
4939;SDS011;2485;49.326;7.214;2022-09-13T07:13:25;12.60;;;5.63;;
4939;SDS011;2485;49.326;7.214;2022-09-13T07:15:52;9.00;;;6.20;;
4939;SDS011;2485;49.326;7.214;2022-09-13T07:18:21;10.60;;;7.03;;
4939;SDS011;2485;49.326;7.214;2022-09-13T07:20:47;7.97;;;5.73;;
4939;SDS011;2485;49.326;7.214;2022-09-13T07:23:14;7.83;;;5.83;;
4939;SDS011;2485;49.326;7.214;2022-09-13T07:25:43;10.63;;;5.93;;
4939;SDS011;2485;49.326;7.214;2022-09-13T07:28:18;14.93;;;5.30;;
4939;SDS011;2485;49.326;7.214;2022-09-13T07:30:45;9.70;;;5.70;;
4939;SDS011;2485;49.326;7.214;2022-09-13T07:33:12;9.40;;;5.47;;
4939;SDS011;2485;49.326;7.214;2022-09-13T07:35:40;5.23;;;4.60;;
4939;SDS011;2485;49.326;7.214;2022-09-13T07:38:07;12.53;;;5.73;;
4939;SDS011;2485;49.326;7.214;2022-09-13T07:40:33;12.07;;;5.83;;
4939;SDS011;2485;49.326;7.214;2022-09-13T07:43:02;19.30;;;5.80;;
4939;SDS011;2485;49.326;7.214;2022-09-13T07:45:29;7.60;;;4.50;;
4939;SDS011;2485;49.326;7.214;2022-09-13T07:47:56;7.80;;;5.43;;
4939;SDS011;2485;49.326;7.214;2022-09-13T07:50:22;8.77;;;5.93;;
4939;SDS011;2485;49.326;7.214;2022-09-13T07:52:50;6.87;;;5.17;;
4939;SDS011;2485;49.326;7.214;2022-09-13T07:55:17;8.60;;;5.30;;
4939;SDS011;2485;49.326;7.214;2022-09-13T07:57:44;7.37;;;5.80;;
4939;SDS011;2485;49.326;7.214;2022-09-13T08:00:13;9.93;;;5.40;;
4939;SDS011;2485;49.326;7.214;2022-09-13T08:02:40;6.40;;;4.63;;
4939;SDS011;2485;49.326;7.214;2022-09-13T08:05:07;8.60;;;5.30;;
4939;SDS011;2485;49.326;7.214;2022-09-13T08:07:34;5.77;;;5.03;;
4939;SDS011;2485;49.326;7.214;2022-09-13T08:10:02;7.03;;;4.80;;
4939;SDS011;2485;49.326;7.214;2022-09-13T08:12:29;7.23;;;5.17;;
4939;SDS011;2485;49.326;7.214;2022-09-13T08:14:58;7.60;;;4.83;;
4939;SDS011;2485;49.326;7.214;2022-09-13T08:17:24;8.37;;;4.93;;
4939;SDS011;2485;49.326;7.214;2022-09-13T08:19:51;7.13;;;4.83;;
4939;SDS011;2485;49.326;7.214;2022-09-13T08:22:18;5.90;;;4.77;;
4939;SDS011;2485;49.326;7.214;2022-09-13T08:24:45;8.83;;;5.13;;
4939;SDS011;2485;49.326;7.214;2022-09-13T08:27:13;5.53;;;4.90;;
4939;SDS011;2485;49.326;7.214;2022-09-13T08:29:39;9.80;;;4.67;;
4939;SDS011;2485;49.326;7.214;2022-09-13T08:32:06;6.80;;;5.07;;
4939;SDS011;2485;49.326;7.214;2022-09-13T08:34:32;11.23;;;5.00;;
4939;SDS011;2485;49.326;7.214;2022-09-13T08:37:02;8.47;;;5.47;;
4939;SDS011;2485;49.326;7.214;2022-09-13T08:39:29;5.83;;;5.23;;
4939;SDS011;2485;49.326;7.214;2022-09-13T08:42:10;5.97;;;4.70;;
4939;SDS011;2485;49.326;7.214;2022-09-13T08:44:42;4.83;;;4.17;;
4939;SDS011;2485;49.326;7.214;2022-09-13T08:47:20;6.07;;;5.20;;
4939;SDS011;2485;49.326;7.214;2022-09-13T08:49:48;5.40;;;4.70;;
4939;SDS011;2485;49.326;7.214;2022-09-13T08:52:19;4.90;;;4.47;;
4939;SDS011;2485;49.326;7.214;2022-09-13T08:54:49;6.27;;;4.90;;
4939;SDS011;2485;49.326;7.214;2022-09-13T08:57:16;8.10;;;4.87;;
4939;SDS011;2485;49.326;7.214;2022-09-13T08:59:51;6.50;;;5.00;;
4939;SDS011;2485;49.326;7.214;2022-09-13T09:02:24;5.07;;;4.57;;
4939;SDS011;2485;49.326;7.214;2022-09-13T09:04:53;5.60;;;4.60;;
4939;SDS011;2485;49.326;7.214;2022-09-13T09:07:23;6.00;;;4.10;;
4939;SDS011;2485;49.326;7.214;2022-09-13T09:09:52;6.37;;;4.33;;
4939;SDS011;2485;49.326;7.214;2022-09-13T09:12:22;5.40;;;4.23;;
4939;SDS011;2485;49.326;7.214;2022-09-13T09:14:56;6.43;;;3.97;;
4939;SDS011;2485;49.326;7.214;2022-09-13T09:17:24;5.73;;;4.10;;
4939;SDS011;2485;49.326;7.214;2022-09-13T09:19:53;5.63;;;4.00;;
4939;SDS011;2485;49.326;7.214;2022-09-13T09:22:22;5.13;;;4.23;;
4939;SDS011;2485;49.326;7.214;2022-09-13T09:24:50;4.10;;;3.70;;
4939;SDS011;2485;49.326;7.214;2022-09-13T09:27:20;5.53;;;3.93;;
4939;SDS011;2485;49.326;7.214;2022-09-13T09:29:48;4.30;;;3.67;;
4939;SDS011;2485;49.326;7.214;2022-09-13T09:32:22;4.30;;;3.90;;
4939;SDS011;2485;49.326;7.214;2022-09-13T09:34:54;4.33;;;3.93;;
4939;SDS011;2485;49.326;7.214;2022-09-13T09:37:25;6.43;;;3.73;;
4939;SDS011;2485;49.326;7.214;2022-09-13T09:39:53;6.50;;;3.50;;
4939;SDS011;2485;49.326;7.214;2022-09-13T09:42:27;4.70;;;3.87;;
4939;SDS011;2485;49.326;7.214;2022-09-13T09:44:56;5.00;;;3.20;;
4939;SDS011;2485;49.326;7.214;2022-09-13T09:47:26;9.43;;;3.10;;
4939;SDS011;2485;49.326;7.214;2022-09-13T09:49:54;4.30;;;3.00;;
4939;SDS011;2485;49.326;7.214;2022-09-13T09:52:38;3.80;;;3.03;;
4939;SDS011;2485;49.326;7.214;2022-09-13T09:55:12;3.73;;;3.33;;
4939;SDS011;2485;49.326;7.214;2022-09-13T09:57:49;5.10;;;3.03;;
4939;SDS011;2485;49.326;7.214;2022-09-13T10:00:16;5.40;;;3.20;;
4939;SDS011;2485;49.326;7.214;2022-09-13T10:02:45;3.93;;;3.50;;
4939;SDS011;2485;49.326;7.214;2022-09-13T10:05:12;3.77;;;3.37;;
4939;SDS011;2485;49.326;7.214;2022-09-13T10:07:48;6.33;;;3.30;;
4939;SDS011;2485;49.326;7.214;2022-09-13T10:10:19;6.00;;;3.40;;
4939;SDS011;2485;49.326;7.214;2022-09-13T10:12:48;5.47;;;3.50;;
4939;SDS011;2485;49.326;7.214;2022-09-13T10:15:15;7.30;;;3.50;;
4939;SDS011;2485;49.326;7.214;2022-09-13T10:17:59;3.40;;;2.97;;
4939;SDS011;2485;49.326;7.214;2022-09-13T10:20:26;7.03;;;2.77;;
4939;SDS011;2485;49.326;7.214;2022-09-13T10:23:08;7.57;;;3.40;;
4939;SDS011;2485;49.326;7.214;2022-09-13T10:25:35;4.77;;;3.23;;
4939;SDS011;2485;49.326;7.214;2022-09-13T10:28:02;5.13;;;3.17;;
4939;SDS011;2485;49.326;7.214;2022-09-13T10:30:31;5.37;;;2.80;;
4939;SDS011;2485;49.326;7.214;2022-09-13T10:33:01;7.83;;;4.03;;
4939;SDS011;2485;49.326;7.214;2022-09-13T10:35:29;3.20;;;3.00;;
4939;SDS011;2485;49.326;7.214;2022-09-13T10:37:56;6.23;;;3.03;;
4939;SDS011;2485;49.326;7.214;2022-09-13T10:40:24;4.23;;;2.87;;
4939;SDS011;2485;49.326;7.214;2022-09-13T10:42:52;5.40;;;3.03;;
4939;SDS011;2485;49.326;7.214;2022-09-13T10:45:21;5.90;;;2.57;;
4939;SDS011;2485;49.326;7.214;2022-09-13T10:47:48;3.13;;;2.83;;
4939;SDS011;2485;49.326;7.214;2022-09-13T10:50:21;4.37;;;2.80;;
4939;SDS011;2485;49.326;7.214;2022-09-13T10:52:49;4.33;;;2.60;;
4939;SDS011;2485;49.326;7.214;2022-09-13T10:55:27;4.07;;;2.73;;
4939;SDS011;2485;49.326;7.214;2022-09-13T10:57:54;3.03;;;2.73;;
4939;SDS011;2485;49.326;7.214;2022-09-13T11:00:22;8.37;;;2.80;;
4939;SDS011;2485;49.326;7.214;2022-09-13T11:02:58;3.13;;;2.73;;
4939;SDS011;2485;49.326;7.214;2022-09-13T11:05:32;4.30;;;2.90;;
4939;SDS011;2485;49.326;7.214;2022-09-13T11:10:55;3.23;;;2.93;;
4939;SDS011;2485;49.326;7.214;2022-09-13T11:13:27;2.77;;;2.40;;
4939;SDS011;2485;49.326;7.214;2022-09-13T11:15:57;3.10;;;2.37;;
4939;SDS011;2485;49.326;7.214;2022-09-13T11:18:32;5.30;;;2.33;;
4939;SDS011;2485;49.326;7.214;2022-09-13T11:21:03;5.40;;;2.20;;
4939;SDS011;2485;49.326;7.214;2022-09-13T11:23:36;3.53;;;2.50;;
4939;SDS011;2485;49.326;7.214;2022-09-13T11:26:09;3.23;;;2.70;;
4939;SDS011;2485;49.326;7.214;2022-09-13T11:28:41;5.23;;;2.70;;
4939;SDS011;2485;49.326;7.214;2022-09-13T11:31:17;2.30;;;2.10;;
4939;SDS011;2485;49.326;7.214;2022-09-13T11:33:49;10.30;;;3.13;;
4939;SDS011;2485;49.326;7.214;2022-09-13T11:36:33;3.10;;;2.00;;
4939;SDS011;2485;49.326;7.214;2022-09-13T11:39:05;2.80;;;2.47;;
4939;SDS011;2485;49.326;7.214;2022-09-13T11:41:39;6.07;;;2.10;;
4939;SDS011;2485;49.326;7.214;2022-09-13T11:44:22;2.77;;;2.00;;
4939;SDS011;2485;49.326;7.214;2022-09-13T12:47:27;2.90;;;2.33;;
4939;SDS011;2485;49.326;7.214;2022-09-13T12:52:59;3.00;;;2.13;;
4939;SDS011;2485;49.326;7.214;2022-09-13T12:55:52;3.07;;;2.43;;
4939;SDS011;2485;49.326;7.214;2022-09-13T12:58:29;9.13;;;2.40;;
4939;SDS011;2485;49.326;7.214;2022-09-13T13:01:07;2.43;;;2.23;;
4939;SDS011;2485;49.326;7.214;2022-09-13T13:03:46;2.70;;;1.70;;
4939;SDS011;2485;49.326;7.214;2022-09-13T13:06:23;3.30;;;1.83;;
4939;SDS011;2485;49.326;7.214;2022-09-13T13:09:19;2.93;;;2.00;;
4939;SDS011;2485;49.326;7.214;2022-09-13T13:12:01;3.03;;;2.00;;
4939;SDS011;2485;49.326;7.214;2022-09-13T13:14:50;5.77;;;2.40;;
4939;SDS011;2485;49.326;7.214;2022-09-13T13:17:39;2.20;;;2.00;;
4939;SDS011;2485;49.326;7.214;2022-09-13T13:23:03;4.33;;;2.23;;
4939;SDS011;2485;49.326;7.214;2022-09-13T13:25:36;5.10;;;1.70;;
4939;SDS011;2485;49.326;7.214;2022-09-13T13:30:50;3.20;;;2.40;;
4939;SDS011;2485;49.326;7.214;2022-09-13T13:33:22;4.33;;;2.20;;
4939;SDS011;2485;49.326;7.214;2022-09-13T13:35:59;2.10;;;1.60;;
4939;SDS011;2485;49.326;7.214;2022-09-13T13:42:21;5.53;;;1.70;;
4939;SDS011;2485;49.326;7.214;2022-09-13T13:45:58;3.97;;;1.80;;
4939;SDS011;2485;49.326;7.214;2022-09-13T13:49:34;2.57;;;1.60;;
4939;SDS011;2485;49.326;7.214;2022-09-13T13:57:50;3.43;;;1.67;;
4939;SDS011;2485;49.326;7.214;2022-09-13T14:00:32;2.53;;;1.40;;
4939;SDS011;2485;49.326;7.214;2022-09-13T14:03:11;1.40;;;1.30;;
4939;SDS011;2485;49.326;7.214;2022-09-13T14:05:50;3.20;;;1.40;;
4939;SDS011;2485;49.326;7.214;2022-09-13T14:08:41;2.33;;;1.57;;
4939;SDS011;2485;49.326;7.214;2022-09-13T14:12:09;1.80;;;1.47;;
4939;SDS011;2485;49.326;7.214;2022-09-13T14:14:59;3.30;;;1.40;;
4939;SDS011;2485;49.326;7.214;2022-09-13T14:20:29;4.13;;;1.60;;
4939;SDS011;2485;49.326;7.214;2022-09-13T14:23:10;3.50;;;1.70;;
4939;SDS011;2485;49.326;7.214;2022-09-13T14:25:52;1.63;;;1.37;;
4939;SDS011;2485;49.326;7.214;2022-09-13T14:28:28;3.73;;;1.60;;
4939;SDS011;2485;49.326;7.214;2022-09-13T14:31:28;1.43;;;1.33;;
4939;SDS011;2485;49.326;7.214;2022-09-13T14:34:19;1.63;;;1.53;;
4939;SDS011;2485;49.326;7.214;2022-09-13T14:37:16;1.60;;;1.50;;
4939;SDS011;2485;49.326;7.214;2022-09-13T14:40:10;2.40;;;1.37;;
4939;SDS011;2485;49.326;7.214;2022-09-13T14:45:36;2.07;;;1.40;;
4939;SDS011;2485;49.326;7.214;2022-09-13T14:57:23;2.33;;;1.80;;
4939;SDS011;2485;49.326;7.214;2022-09-13T15:03:11;5.23;;;2.00;;
4939;SDS011;2485;49.326;7.214;2022-09-13T15:05:55;1.53;;;1.43;;
4939;SDS011;2485;49.326;7.214;2022-09-13T15:08:48;2.30;;;1.50;;
4939;SDS011;2485;49.326;7.214;2022-09-13T15:11:16;2.60;;;1.43;;
4939;SDS011;2485;49.326;7.214;2022-09-13T15:14:15;2.27;;;1.60;;
4939;SDS011;2485;49.326;7.214;2022-09-13T15:16:47;1.70;;;1.60;;
4939;SDS011;2485;49.326;7.214;2022-09-13T15:19:34;2.23;;;1.80;;
4939;SDS011;2485;49.326;7.214;2022-09-13T15:22:11;2.10;;;1.80;;
4939;SDS011;2485;49.326;7.214;2022-09-13T15:24:41;1.73;;;1.50;;
4939;SDS011;2485;49.326;7.214;2022-09-13T15:27:54;1.93;;;1.60;;
4939;SDS011;2485;49.326;7.214;2022-09-13T15:30:38;1.70;;;1.60;;
4939;SDS011;2485;49.326;7.214;2022-09-13T15:33:26;4.50;;;1.60;;
4939;SDS011;2485;49.326;7.214;2022-09-13T15:36:14;2.43;;;1.80;;
4939;SDS011;2485;49.326;7.214;2022-09-13T15:38:58;2.43;;;2.03;;
4939;SDS011;2485;49.326;7.214;2022-09-13T15:41:38;2.43;;;1.87;;
4939;SDS011;2485;49.326;7.214;2022-09-13T15:44:14;3.37;;;1.60;;
4939;SDS011;2485;49.326;7.214;2022-09-13T15:46:45;2.23;;;1.57;;
4939;SDS011;2485;49.326;7.214;2022-09-13T15:49:17;2.87;;;1.90;;
4939;SDS011;2485;49.326;7.214;2022-09-13T15:51:48;2.20;;;2.00;;
4939;SDS011;2485;49.326;7.214;2022-09-13T15:54:24;1.90;;;1.80;;
4939;SDS011;2485;49.326;7.214;2022-09-13T16:00:13;2.43;;;2.00;;
4939;SDS011;2485;49.326;7.214;2022-09-13T16:03:07;2.80;;;2.20;;
4939;SDS011;2485;49.326;7.214;2022-09-13T16:05:57;2.57;;;1.80;;
4939;SDS011;2485;49.326;7.214;2022-09-13T16:08:37;3.53;;;2.00;;
4939;SDS011;2485;49.326;7.214;2022-09-13T16:14:23;2.73;;;2.07;;
4939;SDS011;2485;49.326;7.214;2022-09-13T16:15:02;2.67;;;1.90;;
4939;SDS011;2485;49.326;7.214;2022-09-13T16:17:36;2.37;;;2.00;;
4939;SDS011;2485;49.326;7.214;2022-09-13T16:20:14;2.70;;;1.70;;
4939;SDS011;2485;49.326;7.214;2022-09-13T16:22:55;3.07;;;2.33;;
4939;SDS011;2485;49.326;7.214;2022-09-13T16:25:22;2.47;;;2.00;;
4939;SDS011;2485;49.326;7.214;2022-09-13T16:27:51;4.07;;;2.17;;
4939;SDS011;2485;49.326;7.214;2022-09-13T16:30:19;3.87;;;2.60;;
4939;SDS011;2485;49.326;7.214;2022-09-13T16:32:47;2.90;;;2.23;;
4939;SDS011;2485;49.326;7.214;2022-09-13T16:35:39;4.23;;;2.60;;
4939;SDS011;2485;49.326;7.214;2022-09-13T16:38:12;2.60;;;2.40;;
4939;SDS011;2485;49.326;7.214;2022-09-13T16:41:02;2.37;;;2.17;;
4939;SDS011;2485;49.326;7.214;2022-09-13T16:47:03;2.60;;;2.40;;
4939;SDS011;2485;49.326;7.214;2022-09-13T16:49:56;6.20;;;2.20;;
4939;SDS011;2485;49.326;7.214;2022-09-13T16:52:54;10.20;;;2.67;;
4939;SDS011;2485;49.326;7.214;2022-09-13T16:55:39;2.00;;;1.90;;
4939;SDS011;2485;49.326;7.214;2022-09-13T17:01:26;4.07;;;2.50;;
4939;SDS011;2485;49.326;7.214;2022-09-13T17:04:10;5.30;;;2.17;;
4939;SDS011;2485;49.326;7.214;2022-09-13T17:06:40;6.03;;;2.13;;
4939;SDS011;2485;49.326;7.214;2022-09-13T17:13:03;4.83;;;2.43;;
4939;SDS011;2485;49.326;7.214;2022-09-13T17:15:52;3.47;;;2.20;;
4939;SDS011;2485;49.326;7.214;2022-09-13T17:21:42;6.30;;;2.60;;
4939;SDS011;2485;49.326;7.214;2022-09-13T17:24:53;4.80;;;2.90;;
4939;SDS011;2485;49.326;7.214;2022-09-13T17:36:54;9.03;;;2.70;;
4939;SDS011;2485;49.326;7.214;2022-09-13T17:57:00;4.23;;;2.97;;
4939;SDS011;2485;49.326;7.214;2022-09-13T17:59:30;3.40;;;2.70;;
4939;SDS011;2485;49.326;7.214;2022-09-13T18:02:30;3.77;;;2.30;;
4939;SDS011;2485;49.326;7.214;2022-09-13T18:05:12;8.00;;;2.63;;
4939;SDS011;2485;49.326;7.214;2022-09-13T18:07:57;5.00;;;2.90;;
4939;SDS011;2485;49.326;7.214;2022-09-13T18:10:30;4.10;;;2.83;;
4939;SDS011;2485;49.326;7.214;2022-09-13T18:13:37;3.13;;;2.43;;